93969 UMLI-UMMS
Flight info
| Callsign | 93969 |
|---|---|
| Flight time | 0h 14m |
| Altitude | 4000 |
| Route | RA/A040 |
| Aircraft | T134/M-SDE2E3FGHIJ3J4J7RWXY/LB1 |
Departure
| Time | 2026-04-20 14:14 |
|---|---|
| Airport | Minsk Machulishchy Air Base (UMLI) |
Arrival
| Time | 2026-04-20 14:28 |
|---|---|
| Airport | Minsk National Airport (UMMS) |
| Time | Latitude | Longitude | Altitude | Speed | Heading |
|---|---|---|---|---|---|
| 2026-04-20 14:02 | 53.78159 | 27.57686 | 689 ft | 0 kts | 70° |
| 2026-04-20 14:10 | 53.78160 | 27.57687 | 689 ft | 1 kts | 70° |
| 2026-04-20 14:10 | 53.78128 | 27.57769 | 689 ft | 18 kts | 159° |
| 2026-04-20 14:10 | 53.77860 | 27.57927 | 686 ft | 59 kts | 161° |
| 2026-04-20 14:11 | 53.77504 | 27.58136 | 679 ft | 49 kts | 161° |
| 2026-04-20 14:11 | 53.77210 | 27.58307 | 676 ft | 45 kts | 162° |
| 2026-04-20 14:11 | 53.76866 | 27.58502 | 670 ft | 57 kts | 161° |
| 2026-04-20 14:11 | 53.76557 | 27.58685 | 664 ft | 39 kts | 162° |
| 2026-04-20 14:12 | 53.76291 | 27.58729 | 660 ft | 39 kts | 206° |
| 2026-04-20 14:12 | 53.76119 | 27.58450 | 660 ft | 30 kts | 300° |
| 2026-04-20 14:12 | 53.76218 | 27.58392 | 660 ft | 0 kts | 341° |
| 2026-04-20 14:13 | 53.76221 | 27.58390 | 660 ft | 8 kts | 341° |
| 2026-04-20 14:13 | 53.76562 | 27.58193 | 667 ft | 90 kts | 342° |
| 2026-04-20 14:13 | 53.77367 | 27.57730 | 679 ft | 152 kts | 341° |
| 2026-04-20 14:13 | 53.78455 | 27.57143 | 1183 ft | 169 kts | 343° |
| 2026-04-20 14:14 | 53.79530 | 27.56459 | 2079 ft | 165 kts | 334° |
| 2026-04-20 14:14 | 53.80696 | 27.55418 | 2106 ft | 218 kts | 327° |
| 2026-04-20 14:14 | 53.81798 | 27.53531 | 2695 ft | 238 kts | 299° |
| 2026-04-20 14:14 | 53.82336 | 27.50872 | 3566 ft | 244 kts | 281° |
| 2026-04-20 14:15 | 53.82440 | 27.47949 | 4321 ft | 258 kts | 265° |
| 2026-04-20 14:15 | 53.82117 | 27.44881 | 4938 ft | 274 kts | 258° |
| 2026-04-20 14:15 | 53.81743 | 27.41688 | 5401 ft | 287 kts | 259° |
| 2026-04-20 14:15 | 53.81348 | 27.38316 | 5710 ft | 298 kts | 256° |
| 2026-04-20 14:16 | 53.80478 | 27.35068 | 6042 ft | 306 kts | 234° |
| 2026-04-20 14:16 | 53.78951 | 27.32526 | 6401 ft | 313 kts | 214° |
| 2026-04-20 14:16 | 53.76988 | 27.30932 | 6716 ft | 319 kts | 197° |
| 2026-04-20 14:16 | 53.74742 | 27.30351 | 6425 ft | 334 kts | 179° |
| 2026-04-20 14:17 | 53.72418 | 27.30993 | 6227 ft | 341 kts | 161° |
| 2026-04-20 14:17 | 53.70317 | 27.32778 | 6038 ft | 345 kts | 144° |
| 2026-04-20 14:17 | 53.68565 | 27.35629 | 5852 ft | 344 kts | 126° |
| 2026-04-20 14:17 | 53.67432 | 27.39123 | 5654 ft | 336 kts | 109° |
| 2026-04-20 14:18 | 53.66991 | 27.42925 | 5453 ft | 330 kts | 93° |
| 2026-04-20 14:18 | 53.66614 | 27.46709 | 5235 ft | 325 kts | 110° |
| 2026-04-20 14:18 | 53.65792 | 27.50228 | 5036 ft | 319 kts | 106° |
| 2026-04-20 14:18 | 53.65145 | 27.53698 | 4800 ft | 306 kts | 111° |
| 2026-04-20 14:19 | 53.64427 | 27.57008 | 4558 ft | 297 kts | 106° |
| 2026-04-20 14:19 | 53.63757 | 27.60236 | 4305 ft | 289 kts | 111° |
| 2026-04-20 14:19 | 53.63116 | 27.63437 | 4040 ft | 284 kts | 108° |
| 2026-04-20 14:19 | 53.62429 | 27.66543 | 3770 ft | 280 kts | 109° |
| 2026-04-20 14:20 | 53.61987 | 27.69680 | 3489 ft | 276 kts | 93° |
| 2026-04-20 14:20 | 53.62167 | 27.72819 | 3520 ft | 260 kts | 84° |
| 2026-04-20 14:20 | 53.62266 | 27.75780 | 3593 ft | 245 kts | 84° |
| 2026-04-20 14:20 | 53.62456 | 27.78548 | 3621 ft | 237 kts | 87° |
| 2026-04-20 14:21 | 53.62588 | 27.81323 | 3646 ft | 236 kts | 83° |
| 2026-04-20 14:21 | 53.62728 | 27.84011 | 3910 ft | 236 kts | 85° |
| 2026-04-20 14:21 | 53.62884 | 27.86858 | 3940 ft | 252 kts | 85° |
| 2026-04-20 14:21 | 53.63036 | 27.89925 | 4067 ft | 274 kts | 85° |
| 2026-04-20 14:22 | 53.63208 | 27.93206 | 4259 ft | 292 kts | 85° |
| 2026-04-20 14:22 | 53.63392 | 27.96742 | 4442 ft | 307 kts | 85° |
| 2026-04-20 14:22 | 53.63575 | 28.00458 | 4418 ft | 326 kts | 85° |
| 2026-04-20 14:22 | 53.64069 | 28.09737 | 4561 ft | 348 kts | 84° |
| 2026-04-20 14:23 | 53.64968 | 28.15194 | 4598 ft | 316 kts | 66° |
| 2026-04-20 14:23 | 53.66118 | 28.18191 | 4570 ft | 295 kts | 46° |
| 2026-04-20 14:23 | 53.67649 | 28.20347 | 4169 ft | 291 kts | 38° |
| 2026-04-20 14:23 | 53.69183 | 28.22479 | 3887 ft | 282 kts | 37° |
| 2026-04-20 14:24 | 53.71165 | 28.24659 | 3908 ft | 249 kts | 28° |
| 2026-04-20 14:24 | 53.73986 | 28.26824 | 4288 ft | 204 kts | 6° |
| 2026-04-20 14:24 | 53.75275 | 28.26606 | 4118 ft | 185 kts | 340° |
| 2026-04-20 14:24 | 53.76469 | 28.25334 | 3908 ft | 214 kts | 318° |
| 2026-04-20 14:25 | 53.78582 | 28.21755 | 3596 ft | 232 kts | 313° |
| 2026-04-20 14:25 | 53.79713 | 28.19711 | 3485 ft | 232 kts | 313° |
| 2026-04-20 14:25 | 53.80874 | 28.17764 | 3281 ft | 239 kts | 317° |
| 2026-04-20 14:25 | 53.82126 | 28.15900 | 2976 ft | 242 kts | 319° |
| 2026-04-20 14:26 | 53.83306 | 28.14179 | 2677 ft | 211 kts | 320° |
| 2026-04-20 14:26 | 53.84378 | 28.12601 | 2244 ft | 194 kts | 316° |
| 2026-04-20 14:26 | 53.85314 | 28.11108 | 1853 ft | 182 kts | 317° |
| 2026-04-20 14:26 | 53.86245 | 28.09666 | 1368 ft | 180 kts | 318° |
| 2026-04-20 14:27 | 53.87194 | 28.08273 | 976 ft | 178 kts | 319° |
| 2026-04-20 14:27 | 53.88115 | 28.06923 | 710 ft | 172 kts | 318° |
| 2026-04-20 14:27 | 53.88948 | 28.05668 | 676 ft | 147 kts | 315° |
| 2026-04-20 14:27 | 53.89544 | 28.04796 | 676 ft | 72 kts | 319° |
| 2026-04-20 14:28 | 53.89724 | 28.04543 | 676 ft | 0 kts | 280° |
| 2026-04-20 14:30 | 53.89724 | 28.04540 | 676 ft | 0 kts | 273° |
| 2026-04-20 14:36 | 53.89724 | 28.04538 | 676 ft | 1 kts | 267° |
| 2026-04-20 14:36 | 53.89715 | 28.04497 | 676 ft | 6 kts | 251° |
| 2026-04-20 14:36 | 53.89706 | 28.04455 | 676 ft | 2 kts | 257° |
| 2026-04-20 14:36 | 53.89738 | 28.04302 | 676 ft | 3 kts | 287° |
| 2026-04-20 14:37 | 53.89760 | 28.04207 | 676 ft | 2 kts | 265° |
| 2026-04-20 14:37 | 53.89745 | 28.04175 | 676 ft | 2 kts | 202° |
| 2026-04-20 14:37 | 53.89731 | 28.04171 | 676 ft | 2 kts | 184° |
| 2026-04-20 14:37 | 53.89709 | 28.04168 | 676 ft | 1 kts | 201° |
| 2026-04-20 14:38 | 53.89693 | 28.04167 | 676 ft | 2 kts | 146° |
| 2026-04-20 14:38 | 53.89670 | 28.04194 | 676 ft | 3 kts | 124° |
| 2026-04-20 14:39 | 53.87369 | 28.05065 | 676 ft | 0 kts | 193° |